createdAt,value
2023-05-15T00:13:51.626Z,20.63
2023-05-15T00:28:53.968Z,19.53
2023-05-15T00:43:57.248Z,18.70
2023-05-15T00:59:02.788Z,22.07
2023-05-15T01:14:07.212Z,21.93
2023-05-15T01:29:22.957Z,22.17
2023-05-15T01:44:32.203Z,19.80
2023-05-15T01:59:37.978Z,19.83
2023-05-15T02:14:41.186Z,24.60
2023-05-15T02:30:03.388Z,29.47
2023-05-15T02:45:07.598Z,31.23
2023-05-15T03:00:13.337Z,30.17
2023-05-15T03:15:15.916Z,33.17
2023-05-15T03:30:18.403Z,30.47
2023-05-15T03:45:21.493Z,29.07
2023-05-15T04:00:24.861Z,32.37
2023-05-15T04:15:28.765Z,27.27
2023-05-15T04:30:31.549Z,27.50
2023-05-15T04:45:33.907Z,27.13
2023-05-15T05:00:36.265Z,32.80
2023-05-15T05:15:38.703Z,35.80
2023-05-15T05:30:47.959Z,35.33
2023-05-15T05:45:50.292Z,34.50
2023-05-15T06:00:52.934Z,39.30
2023-05-15T06:15:55.281Z,34.83
2023-05-15T06:31:00.515Z,33.53
2023-05-15T06:46:03.085Z,30.47
2023-05-15T07:01:07.087Z,29.97
2023-05-15T07:16:09.732Z,28.27
2023-05-15T07:31:12.026Z,31.50
2023-05-15T07:46:14.491Z,30.07
2023-05-15T08:01:16.876Z,27.90
2023-05-15T08:16:19.419Z,27.10
2023-05-15T08:31:21.865Z,26.63
2023-05-15T08:46:24.652Z,22.80
2023-05-15T09:01:28.625Z,21.63
2023-05-15T09:16:31.247Z,20.37
2023-05-15T09:31:37.873Z,20.10
2023-05-15T09:46:40.357Z,19.20
2023-05-15T10:01:45.550Z,16.27
2023-05-15T10:16:51.635Z,15.97
2023-05-15T10:31:54.691Z,15.83
2023-05-15T10:46:59.209Z,19.30
2023-05-15T11:02:38.054Z,17.83
2023-05-15T11:18:06.950Z,9.33
2023-05-15T11:33:13.603Z,6.77
2023-05-15T11:48:17.500Z,6.70
2023-05-15T12:03:27.309Z,9.47
2023-05-15T12:18:31.699Z,9.43
2023-05-15T12:33:34.263Z,9.03
2023-05-15T12:48:36.802Z,8.70
2023-05-15T13:03:39.562Z,8.20
2023-05-15T13:18:42.019Z,17.27
2023-05-15T13:33:44.551Z,19.73
2023-05-15T13:48:46.993Z,17.77
2023-05-15T14:03:49.510Z,14.07
2023-05-15T14:18:52.195Z,17.20
2023-05-15T14:33:54.921Z,16.47
2023-05-15T14:48:57.364Z,16.83
2023-05-15T15:04:00.838Z,18.77
2023-05-15T15:19:04.506Z,24.73
2023-05-15T15:34:09.203Z,23.47
2023-05-15T15:49:11.914Z,24.30
2023-05-15T16:04:14.734Z,21.90
2023-05-15T16:19:17.536Z,19.77
2023-05-15T16:34:20.604Z,20.07
2023-05-15T16:49:23.015Z,24.00
2023-05-15T17:04:25.857Z,23.53
2023-05-15T17:19:28.410Z,20.97
2023-05-15T17:34:31.045Z,22.63
2023-05-15T17:49:34.462Z,14.03
2023-05-15T18:04:37.348Z,9.40
2023-05-15T18:19:46.667Z,8.20
2023-05-15T18:34:50.370Z,6.20
2023-05-15T18:49:53.728Z,5.80
2023-05-15T19:04:56.711Z,6.40
2023-05-15T19:19:59.187Z,5.03
2023-05-15T19:35:01.785Z,4.63
2023-05-15T19:50:05.551Z,4.80
2023-05-15T20:05:08.651Z,4.80
2023-05-15T20:20:12.472Z,4.17
2023-05-15T20:35:14.862Z,3.80
2023-05-15T20:50:18.910Z,3.00
2023-05-15T21:05:21.341Z,3.47
2023-05-15T21:20:23.829Z,3.20
2023-05-15T21:35:29.032Z,3.87
2023-05-15T21:50:34.094Z,4.23
2023-05-15T22:05:36.372Z,4.50
2023-05-15T22:20:39.043Z,4.80
2023-05-15T22:35:41.398Z,4.10
2023-05-15T22:50:44.575Z,4.10
2023-05-15T23:05:46.988Z,4.17
2023-05-15T23:20:50.515Z,3.90
2023-05-15T23:35:52.890Z,3.53
2023-05-15T23:50:55.266Z,3.20
